地図

経路データ

SID SEASON NUMBER BASIN SUBBASIN NAME ISO_TIME NATURE LAT LON WMO_WIND WMO_PRES WMO_AGENCY TRACK_TYPE DIST2LAND LANDFALL IFLAG USA_AGENCY USA_ATCF_ID USA_LAT USA_LON USA_RECORD USA_STATUS USA_WIND USA_PRES USA_SSHS USA_R34_NE USA_R34_SE USA_R34_SW USA_R34_NW USA_R50_NE USA_R50_SE USA_R50_SW USA_R50_NW USA_R64_NE USA_R64_SE USA_R64_SW USA_R64_NW USA_POCI USA_ROCI USA_RMW USA_EYE TOKYO_LAT TOKYO_LON TOKYO_GRADE TOKYO_WIND TOKYO_PRES TOKYO_R50_DIR TOKYO_R50_LONG TOKYO_R50_SHORT TOKYO_R30_DIR TOKYO_R30_LONG TOKYO_R30_SHORT TOKYO_LAND CMA_LAT CMA_LON CMA_CAT CMA_WIND CMA_PRES HKO_LAT HKO_LON HKO_CAT HKO_WIND HKO_PRES NEWDELHI_LAT NEWDELHI_LON NEWDELHI_GRADE NEWDELHI_WIND NEWDELHI_PRES NEWDELHI_CI NEWDELHI_DP NEWDELHI_POCI REUNION_LAT REUNION_LON REUNION_TYPE REUNION_WIND REUNION_PRES REUNION_TNUM REUNION_CI REUNION_RMW REUNION_R34_NE REUNION_R34_SE REUNION_R34_SW REUNION_R34_NW REUNION_R50_NE REUNION_R50_SE REUNION_R50_SW REUNION_R50_NW REUNION_R64_NE REUNION_R64_SE REUNION_R64_SW REUNION_R64_NW BOM_LAT BOM_LON BOM_TYPE BOM_WIND BOM_PRES BOM_TNUM BOM_CI BOM_RMW BOM_R34_NE BOM_R34_SE BOM_R34_SW BOM_R34_NW BOM_R50_NE BOM_R50_SE BOM_R50_SW BOM_R50_NW BOM_R64_NE BOM_R64_SE BOM_R64_SW BOM_R64_NW BOM_ROCI BOM_POCI BOM_EYE BOM_POS_METHOD BOM_PRES_METHOD NADI_LAT NADI_LON NADI_CAT NADI_WIND NADI_PRES WELLINGTON_LAT WELLINGTON_LON WELLINGTON_WIND WELLINGTON_PRES DS824_LAT DS824_LON DS824_STAGE DS824_WIND DS824_PRES TD9636_LAT TD9636_LON TD9636_STAGE TD9636_WIND TD9636_PRES TD9635_LAT TD9635_LON TD9635_WIND TD9635_PRES TD9635_ROCI NEUMANN_LAT NEUMANN_LON NEUMANN_CLASS NEUMANN_WIND NEUMANN_PRES MLC_LAT MLC_LON MLC_CLASS MLC_WIND MLC_PRES USA_GUST BOM_GUST BOM_GUST_PER REUNION_GUST REUNION_GUST_PER USA_SEAHGT USA_SEARAD_NE USA_SEARAD_SE USA_SEARAD_SW USA_SEARAD_NW STORM_SPEED STORM_DIR
1880153N20089 1880 4 NI BB NOT_NAMED 1880-06-01 00:00:00 TS 19.8000 88.9000 main 201 190 _________O____ -1 19.8000 88.9000 TC 30 2 342
1880153N20089 1880 4 NI BB NOT_NAMED 1880-06-01 03:00:00 TS 19.9067 88.8667 main 190 178 _________PO___ -1 19.9600 88.8500 TC 30 19.8000 88.9000 1 2 343
1880153N20089 1880 4 NI BB NOT_NAMED 1880-06-01 06:00:00 TS 20.0369 88.8213 main 179 168 _________OP___ -1 20.1000 88.8000 TC 30 19.9422 88.8533 1 3 341
1880153N20089 1880 4 NI BB NOT_NAMED 1880-06-01 09:00:00 TS 20.1518 88.7736 main 156 156 _________PP___ -1 20.2075 88.7500 TC 30 20.0775 88.8052 1 2 337
1880153N20089 1880 4 NI BB NOT_NAMED 1880-06-01 12:00:00 TS 20.2495 88.7273 main 157 146 _________OP___ -1 20.3000 88.7000 TC 30 20.1991 88.7545 1 2 336
1880153N20089 1880 4 NI BB NOT_NAMED 1880-06-01 15:00:00 TS 20.3500 88.6787 main 146 134 _________PO___ -1 20.4000 88.6575 TC 30 20.3000 88.7000 1 2 333
1880153N20089 1880 4 NI BB NOT_NAMED 1880-06-01 18:00:00 TS 20.4394 88.6201 main 134 123 _________OP___ -1 20.5000 88.6000 TC 30 20.3787 88.6401 1 2 323
1880153N20089 1880 4 NI BB NOT_NAMED 1880-06-01 21:00:00 TS 20.5162 88.5435 main 123 111 _________PP___ -1 20.5775 88.5149 TC 30 20.4550 88.5722 1 2 319
1880153N20089 1880 4 NI BB NOT_NAMED 1880-06-02 00:00:00 TS 20.6269 88.4466 main 111 89 _________OP___ -1 20.7000 88.4000 TC 30 20.5537 88.4932 1 4 325
1880153N20089 1880 4 NI BB NOT_NAMED 1880-06-02 03:00:00 TS 20.8100 88.3250 main 89 67 _________PO___ -1 20.9200 88.2501 TC 30 20.7000 88.4000 1 5 331
1880153N20089 1880 4 NI BB NOT_NAMED 1880-06-02 06:00:00 TS 21.0644 88.1888 main 55 35 _________OP___ -1 21.2000 88.1000 TC 30 20.9288 88.2775 1 6 336
1880153N20089 1880 4 NI BB NOT_NAMED 1880-06-02 09:00:00 TS 21.3526 88.0640 main 24 20 _________PP___ -1 21.5000 87.9850 TC 30 21.2051 88.1429 1 6 340
1880153N20089 1880 4 NI BB NOT_NAMED 1880-06-02 12:00:00 TS 21.6519 87.9559 main 15 0 _________OP___ -1 21.8000 87.9000 TC 30 21.5038 88.0119 1 6 343
1880153N20089 1880 4 NI BB NOT_NAMED 1880-06-02 15:00:00 TS 21.9287 87.8712 main 0 0 _________PO___ -1 22.0575 87.8424 TC 30 21.8000 87.9000 1 5 346
1880153N20089 1880 4 NI BB NOT_NAMED 1880-06-02 18:00:00 TS 22.1786 87.8101 main 0 0 _________OP___ -1 22.3000 87.8000 TC 30 22.0571 87.8202 1 5 347
1880153N20089 1880 4 NI BB NOT_NAMED 1880-06-02 21:00:00 TS 22.4287 87.7524 main 0 0 _________PP___ -1 22.5500 87.7425 TC 30 22.3074 87.7623 1 5 350
1880153N20089 1880 4 NI BB NOT_NAMED 1880-06-03 00:00:00 TS 22.6770 87.7117 main 0 0 _________OP___ -1 22.8000 87.7000 TC 30 22.5540 87.7234 1 5 354
1880153N20089 1880 4 NI BB NOT_NAMED 1880-06-03 03:00:00 TS 22.9250 87.6962 main 0 0 _________PO___ -1 23.0500 87.6925 TC 30 22.8000 87.7000 1 5 0
1880153N20089 1880 4 NI BB NOT_NAMED 1880-06-03 06:00:00 TS 23.1750 87.6927 main 0 0 _________OP___ -1 23.3000 87.7000 TC 30 23.0500 87.6855 1 5 0
1880153N20089 1880 4 NI BB NOT_NAMED 1880-06-03 09:00:00 TS 23.4212 87.6924 main 0 0 _________PP___ -1 23.5425 87.7000 TC 30 23.3000 87.6848 1 5 2
1880153N20089 1880 4 NI BB NOT_NAMED 1880-06-03 12:00:00 TS 23.6750 87.6959 main 0 0 _________OP___ -1 23.8000 87.7000 TC 30 23.5500 87.6918 1 5 0
1880153N20089 1880 4 NI BB NOT_NAMED 1880-06-03 15:00:00 TS 23.9538 87.7000 main 0 0 _________PO___ -1 24.1075 87.7000 TC 30 23.8000 87.7000 1 5 0
1880153N20089 1880 4 NI BB NOT_NAMED 1880-06-03 18:00:00 TS 24.2000 87.7025 main 0 0 _________OP___ -1 24.4000 87.7000 TC 30 24.0500 87.7044 1 5 0
1880153N20089 1880 4 NI BB NOT_NAMED 1880-06-03 21:00:00 TS 24.4290 87.7031 main 0 0 _________PP___ -1 24.6225 87.7000 TC 30 24.3000 87.7051 1 4 359
1880153N20089 1880 4 NI BB NOT_NAMED 1880-06-04 00:00:00 TS 24.6333 87.7021 main 0 0 _________OP___ -1 24.8000 87.7000 TC 30 24.5500 87.7032 1 4 358
1880153N20089 1880 4 NI BB NOT_NAMED 1880-06-04 03:00:00 NR 24.8000 87.7000 main 0 __________O___ -1 TC 24.8000 87.7000 1 3 353

IBTrACS Databaseについて

本データベースは、米国NOAAが公開する1842年以降の世界の熱帯低気圧のベストトラックデータアーカイブInternational Best Track Archive for Climate Stewardship (IBTrACS)を、ウェブで閲覧しやすい形式に変換したものです。

最終更新日:2021-12-06